sensor_id;sensor_type;location;lat;lon;timestamp;P1;durP1;ratioP1;P2;durP2;ratioP2
11614;SDS011;5863;52.832;4.758;2022-07-09T00:01:04;4.63;;;2.80;;
11614;SDS011;5863;52.832;4.758;2022-07-09T00:03:31;3.47;;;2.72;;
11614;SDS011;5863;52.832;4.758;2022-07-09T00:05:58;4.63;;;2.55;;
11614;SDS011;5863;52.832;4.758;2022-07-09T00:08:27;4.03;;;2.70;;
11614;SDS011;5863;52.832;4.758;2022-07-09T00:10:55;2.67;;;2.40;;
11614;SDS011;5863;52.832;4.758;2022-07-09T00:13:22;3.78;;;2.55;;
11614;SDS011;5863;52.832;4.758;2022-07-09T00:15:49;4.65;;;2.42;;
11614;SDS011;5863;52.832;4.758;2022-07-09T00:18:17;5.35;;;2.45;;
11614;SDS011;5863;52.832;4.758;2022-07-09T00:20:44;3.90;;;2.25;;
11614;SDS011;5863;52.832;4.758;2022-07-09T00:23:11;4.50;;;2.58;;
11614;SDS011;5863;52.832;4.758;2022-07-09T00:25:37;3.47;;;2.40;;
11614;SDS011;5863;52.832;4.758;2022-07-09T00:28:05;2.65;;;2.30;;
11614;SDS011;5863;52.832;4.758;2022-07-09T00:30:32;4.25;;;2.45;;
11614;SDS011;5863;52.832;4.758;2022-07-09T00:32:59;6.07;;;2.47;;
11614;SDS011;5863;52.832;4.758;2022-07-09T00:35:26;3.20;;;2.30;;
11614;SDS011;5863;52.832;4.758;2022-07-09T00:37:53;3.60;;;2.08;;
11614;SDS011;5863;52.832;4.758;2022-07-09T00:40:20;4.18;;;2.40;;
11614;SDS011;5863;52.832;4.758;2022-07-09T00:42:47;2.67;;;1.88;;
11614;SDS011;5863;52.832;4.758;2022-07-09T00:45:15;5.85;;;2.35;;
11614;SDS011;5863;52.832;4.758;2022-07-09T00:47:42;3.85;;;2.22;;
11614;SDS011;5863;52.832;4.758;2022-07-09T00:50:09;3.33;;;2.20;;
11614;SDS011;5863;52.832;4.758;2022-07-09T00:52:36;3.25;;;2.55;;
11614;SDS011;5863;52.832;4.758;2022-07-09T00:55:04;3.05;;;2.00;;
11614;SDS011;5863;52.832;4.758;2022-07-09T00:57:32;3.85;;;2.30;;
11614;SDS011;5863;52.832;4.758;2022-07-09T00:59:59;6.10;;;2.15;;
11614;SDS011;5863;52.832;4.758;2022-07-09T01:02:27;3.30;;;2.08;;
11614;SDS011;5863;52.832;4.758;2022-07-09T01:04:55;2.30;;;2.10;;
11614;SDS011;5863;52.832;4.758;2022-07-09T01:07:21;4.75;;;2.20;;
11614;SDS011;5863;52.832;4.758;2022-07-09T01:09:48;2.28;;;1.95;;
11614;SDS011;5863;52.832;4.758;2022-07-09T01:12:15;2.97;;;2.00;;
11614;SDS011;5863;52.832;4.758;2022-07-09T01:14:41;2.55;;;2.08;;
11614;SDS011;5863;52.832;4.758;2022-07-09T01:17:08;5.65;;;2.35;;
11614;SDS011;5863;52.832;4.758;2022-07-09T01:19:36;3.00;;;2.08;;
11614;SDS011;5863;52.832;4.758;2022-07-09T01:22:04;3.72;;;2.20;;
11614;SDS011;5863;52.832;4.758;2022-07-09T01:24:31;7.22;;;2.42;;
11614;SDS011;5863;52.832;4.758;2022-07-09T01:26:58;6.35;;;2.20;;
11614;SDS011;5863;52.832;4.758;2022-07-09T01:29:25;4.45;;;2.20;;
11614;SDS011;5863;52.832;4.758;2022-07-09T01:31:52;3.90;;;2.05;;
11614;SDS011;5863;52.832;4.758;2022-07-09T01:34:19;4.38;;;2.22;;
11614;SDS011;5863;52.832;4.758;2022-07-09T01:36:45;2.80;;;2.13;;
11614;SDS011;5863;52.832;4.758;2022-07-09T01:39:14;3.58;;;2.20;;
11614;SDS011;5863;52.832;4.758;2022-07-09T01:41:40;2.92;;;2.33;;
11614;SDS011;5863;52.832;4.758;2022-07-09T01:44:07;4.93;;;2.22;;
11614;SDS011;5863;52.832;4.758;2022-07-09T01:46:34;3.70;;;2.30;;
11614;SDS011;5863;52.832;4.758;2022-07-09T01:49:01;2.70;;;2.20;;
11614;SDS011;5863;52.832;4.758;2022-07-09T01:51:27;2.42;;;2.13;;
11614;SDS011;5863;52.832;4.758;2022-07-09T01:53:54;5.55;;;2.40;;
11614;SDS011;5863;52.832;4.758;2022-07-09T01:56:22;3.83;;;2.33;;
11614;SDS011;5863;52.832;4.758;2022-07-09T01:58:49;2.63;;;1.85;;
11614;SDS011;5863;52.832;4.758;2022-07-09T02:01:16;4.63;;;2.03;;
11614;SDS011;5863;52.832;4.758;2022-07-09T02:03:42;7.22;;;2.40;;
11614;SDS011;5863;52.832;4.758;2022-07-09T02:06:09;3.90;;;2.28;;
11614;SDS011;5863;52.832;4.758;2022-07-09T02:08:36;2.47;;;2.28;;
11614;SDS011;5863;52.832;4.758;2022-07-09T02:11:04;4.95;;;2.17;;
11614;SDS011;5863;52.832;4.758;2022-07-09T02:13:32;3.97;;;2.25;;
11614;SDS011;5863;52.832;4.758;2022-07-09T02:15:59;2.97;;;2.28;;
11614;SDS011;5863;52.832;4.758;2022-07-09T02:18:26;3.58;;;2.30;;
11614;SDS011;5863;52.832;4.758;2022-07-09T02:20:53;2.50;;;1.77;;
11614;SDS011;5863;52.832;4.758;2022-07-09T02:23:20;2.90;;;2.10;;
11614;SDS011;5863;52.832;4.758;2022-07-09T02:25:47;3.15;;;2.30;;
11614;SDS011;5863;52.832;4.758;2022-07-09T02:28:14;2.28;;;2.08;;
11614;SDS011;5863;52.832;4.758;2022-07-09T02:30:42;2.33;;;1.85;;
11614;SDS011;5863;52.832;4.758;2022-07-09T02:33:09;5.32;;;2.08;;
11614;SDS011;5863;52.832;4.758;2022-07-09T02:35:35;3.75;;;2.42;;
11614;SDS011;5863;52.832;4.758;2022-07-09T02:38:02;3.47;;;1.98;;
11614;SDS011;5863;52.832;4.758;2022-07-09T02:40:29;2.58;;;1.95;;
11614;SDS011;5863;52.832;4.758;2022-07-09T02:42:55;2.20;;;2.00;;
11614;SDS011;5863;52.832;4.758;2022-07-09T02:45:22;2.03;;;1.80;;
11614;SDS011;5863;52.832;4.758;2022-07-09T02:47:50;2.70;;;2.08;;
11614;SDS011;5863;52.832;4.758;2022-07-09T02:50:17;3.72;;;2.17;;
11614;SDS011;5863;52.832;4.758;2022-07-09T02:52:44;4.03;;;2.17;;
11614;SDS011;5863;52.832;4.758;2022-07-09T02:55:10;2.42;;;1.95;;
11614;SDS011;5863;52.832;4.758;2022-07-09T02:57:37;3.38;;;1.70;;
11614;SDS011;5863;52.832;4.758;2022-07-09T03:00:04;2.55;;;2.00;;
11614;SDS011;5863;52.832;4.758;2022-07-09T03:02:32;3.65;;;1.90;;
11614;SDS011;5863;52.832;4.758;2022-07-09T03:05:00;3.60;;;1.90;;
11614;SDS011;5863;52.832;4.758;2022-07-09T03:07:27;3.15;;;1.98;;
11614;SDS011;5863;52.832;4.758;2022-07-09T03:09:53;3.17;;;2.13;;
11614;SDS011;5863;52.832;4.758;2022-07-09T03:12:21;3.92;;;1.90;;
11614;SDS011;5863;52.832;4.758;2022-07-09T03:14:48;2.40;;;2.00;;
11614;SDS011;5863;52.832;4.758;2022-07-09T03:17:15;2.78;;;1.90;;
11614;SDS011;5863;52.832;4.758;2022-07-09T03:19:41;2.08;;;1.88;;
11614;SDS011;5863;52.832;4.758;2022-07-09T03:22:09;3.00;;;2.20;;
11614;SDS011;5863;52.832;4.758;2022-07-09T03:24:37;3.83;;;1.80;;
11614;SDS011;5863;52.832;4.758;2022-07-09T03:27:04;4.18;;;1.73;;
11614;SDS011;5863;52.832;4.758;2022-07-09T03:29:31;4.43;;;2.30;;
11614;SDS011;5863;52.832;4.758;2022-07-09T03:31:57;3.92;;;2.10;;
11614;SDS011;5863;52.832;4.758;2022-07-09T03:34:24;2.45;;;2.22;;
11614;SDS011;5863;52.832;4.758;2022-07-09T03:36:51;4.38;;;2.38;;
11614;SDS011;5863;52.832;4.758;2022-07-09T03:39:19;2.63;;;2.10;;
11614;SDS011;5863;52.832;4.758;2022-07-09T03:41:46;3.40;;;2.20;;
11614;SDS011;5863;52.832;4.758;2022-07-09T03:44:13;3.15;;;2.45;;
11614;SDS011;5863;52.832;4.758;2022-07-09T03:46:40;4.07;;;2.47;;
11614;SDS011;5863;52.832;4.758;2022-07-09T03:49:06;4.70;;;2.70;;
11614;SDS011;5863;52.832;4.758;2022-07-09T03:51:33;4.53;;;2.63;;
11614;SDS011;5863;52.832;4.758;2022-07-09T03:54:00;4.38;;;2.70;;
11614;SDS011;5863;52.832;4.758;2022-07-09T03:56:28;4.53;;;2.88;;
11614;SDS011;5863;52.832;4.758;2022-07-09T03:58:55;3.25;;;2.95;;
11614;SDS011;5863;52.832;4.758;2022-07-09T04:01:22;5.03;;;2.92;;
11614;SDS011;5863;52.832;4.758;2022-07-09T04:03:48;3.10;;;2.88;;
11614;SDS011;5863;52.832;4.758;2022-07-09T04:06:15;3.15;;;2.45;;
11614;SDS011;5863;52.832;4.758;2022-07-09T04:08:42;3.38;;;3.05;;
11614;SDS011;5863;52.832;4.758;2022-07-09T04:11:09;5.07;;;3.17;;
11614;SDS011;5863;52.832;4.758;2022-07-09T04:13:37;5.85;;;2.95;;
11614;SDS011;5863;52.832;4.758;2022-07-09T04:16:04;4.13;;;3.40;;
11614;SDS011;5863;52.832;4.758;2022-07-09T04:18:32;5.57;;;3.70;;
11614;SDS011;5863;52.832;4.758;2022-07-09T04:20:59;6.50;;;3.65;;
11614;SDS011;5863;52.832;4.758;2022-07-09T04:23:26;5.93;;;3.83;;
11614;SDS011;5863;52.832;4.758;2022-07-09T04:25:53;5.60;;;4.07;;
11614;SDS011;5863;52.832;4.758;2022-07-09T04:28:20;5.05;;;3.80;;
11614;SDS011;5863;52.832;4.758;2022-07-09T04:30:48;6.43;;;4.32;;
11614;SDS011;5863;52.832;4.758;2022-07-09T04:33:15;4.68;;;4.22;;
11614;SDS011;5863;52.832;4.758;2022-07-09T04:35:43;5.38;;;3.83;;
11614;SDS011;5863;52.832;4.758;2022-07-09T04:38:10;6.82;;;4.45;;
11614;SDS011;5863;52.832;4.758;2022-07-09T04:40:37;4.90;;;3.85;;
11614;SDS011;5863;52.832;4.758;2022-07-09T04:43:04;4.82;;;4.25;;
11614;SDS011;5863;52.832;4.758;2022-07-09T04:45:31;5.25;;;3.90;;
11614;SDS011;5863;52.832;4.758;2022-07-09T04:48:00;4.53;;;4.03;;
11614;SDS011;5863;52.832;4.758;2022-07-09T04:50:27;6.80;;;4.18;;
11614;SDS011;5863;52.832;4.758;2022-07-09T04:52:54;4.20;;;3.78;;
11614;SDS011;5863;52.832;4.758;2022-07-09T04:55:20;5.60;;;3.78;;
11614;SDS011;5863;52.832;4.758;2022-07-09T04:57:47;5.75;;;3.38;;
11614;SDS011;5863;52.832;4.758;2022-07-09T05:00:14;4.20;;;3.70;;
11614;SDS011;5863;52.832;4.758;2022-07-09T05:02:42;3.55;;;3.00;;
11614;SDS011;5863;52.832;4.758;2022-07-09T05:05:11;4.35;;;2.88;;
11614;SDS011;5863;52.832;4.758;2022-07-09T05:07:38;4.50;;;2.90;;
11614;SDS011;5863;52.832;4.758;2022-07-09T05:10:06;6.10;;;2.80;;
11614;SDS011;5863;52.832;4.758;2022-07-09T05:12:34;4.55;;;2.70;;
11614;SDS011;5863;52.832;4.758;2022-07-09T05:15:01;3.20;;;2.70;;
11614;SDS011;5863;52.832;4.758;2022-07-09T05:17:32;3.97;;;2.72;;
11614;SDS011;5863;52.832;4.758;2022-07-09T05:19:59;4.85;;;2.67;;
11614;SDS011;5863;52.832;4.758;2022-07-09T05:22:29;3.28;;;2.28;;
11614;SDS011;5863;52.832;4.758;2022-07-09T05:24:57;2.92;;;2.20;;
11614;SDS011;5863;52.832;4.758;2022-07-09T05:27:23;2.58;;;2.33;;
11614;SDS011;5863;52.832;4.758;2022-07-09T05:29:50;6.03;;;2.60;;
11614;SDS011;5863;52.832;4.758;2022-07-09T05:32:17;4.38;;;2.25;;
11614;SDS011;5863;52.832;4.758;2022-07-09T05:34:44;2.45;;;2.05;;
11614;SDS011;5863;52.832;4.758;2022-07-09T05:37:10;2.53;;;2.10;;
11614;SDS011;5863;52.832;4.758;2022-07-09T05:39:38;4.43;;;2.13;;
11614;SDS011;5863;52.832;4.758;2022-07-09T05:42:06;3.08;;;1.75;;
11614;SDS011;5863;52.832;4.758;2022-07-09T05:44:33;4.45;;;1.70;;
11614;SDS011;5863;52.832;4.758;2022-07-09T05:46:59;3.63;;;1.70;;
11614;SDS011;5863;52.832;4.758;2022-07-09T05:49:27;2.13;;;1.60;;
11614;SDS011;5863;52.832;4.758;2022-07-09T05:51:54;3.80;;;1.92;;
11614;SDS011;5863;52.832;4.758;2022-07-09T05:54:21;1.95;;;1.50;;
11614;SDS011;5863;52.832;4.758;2022-07-09T05:56:49;3.70;;;1.70;;
11614;SDS011;5863;52.832;4.758;2022-07-09T05:59:16;4.03;;;1.60;;
11614;SDS011;5863;52.832;4.758;2022-07-09T06:01:43;4.38;;;1.70;;
11614;SDS011;5863;52.832;4.758;2022-07-09T06:04:10;3.00;;;1.50;;
11614;SDS011;5863;52.832;4.758;2022-07-09T06:06:36;3.08;;;1.15;;
11614;SDS011;5863;52.832;4.758;2022-07-09T06:09:03;4.95;;;1.65;;
11614;SDS011;5863;52.832;4.758;2022-07-09T06:11:30;3.40;;;1.42;;
11614;SDS011;5863;52.832;4.758;2022-07-09T06:13:58;3.97;;;1.48;;
11614;SDS011;5863;52.832;4.758;2022-07-09T06:16:25;2.83;;;1.60;;
11614;SDS011;5863;52.832;4.758;2022-07-09T06:18:52;2.95;;;1.13;;
11614;SDS011;5863;52.832;4.758;2022-07-09T06:21:18;3.97;;;1.40;;
11614;SDS011;5863;52.832;4.758;2022-07-09T06:23:45;1.77;;;1.25;;
11614;SDS011;5863;52.832;4.758;2022-07-09T06:26:12;3.35;;;1.70;;
11614;SDS011;5863;52.832;4.758;2022-07-09T06:28:39;3.47;;;1.63;;
11614;SDS011;5863;52.832;4.758;2022-07-09T06:31:07;3.50;;;1.60;;
11614;SDS011;5863;52.832;4.758;2022-07-09T06:33:34;4.80;;;1.30;;
11614;SDS011;5863;52.832;4.758;2022-07-09T06:36:01;2.63;;;1.30;;
11614;SDS011;5863;52.832;4.758;2022-07-09T06:38:30;3.42;;;1.50;;
11614;SDS011;5863;52.832;4.758;2022-07-09T06:40:57;7.45;;;1.45;;
11614;SDS011;5863;52.832;4.758;2022-07-09T06:43:24;5.78;;;1.40;;
11614;SDS011;5863;52.832;4.758;2022-07-09T06:45:51;6.78;;;1.40;;
11614;SDS011;5863;52.832;4.758;2022-07-09T06:48:19;4.90;;;1.60;;
11614;SDS011;5863;52.832;4.758;2022-07-09T06:50:47;6.18;;;1.60;;
11614;SDS011;5863;52.832;4.758;2022-07-09T06:53:13;3.85;;;1.52;;
11614;SDS011;5863;52.832;4.758;2022-07-09T06:55:40;5.10;;;1.60;;
11614;SDS011;5863;52.832;4.758;2022-07-09T06:58:08;3.40;;;1.60;;
11614;SDS011;5863;52.832;4.758;2022-07-09T07:00:35;3.58;;;1.75;;
11614;SDS011;5863;52.832;4.758;2022-07-09T07:03:01;4.72;;;1.98;;
11614;SDS011;5863;52.832;4.758;2022-07-09T07:05:30;2.88;;;1.50;;
11614;SDS011;5863;52.832;4.758;2022-07-09T07:07:57;5.80;;;1.77;;
11614;SDS011;5863;52.832;4.758;2022-07-09T07:10:23;3.28;;;1.60;;
11614;SDS011;5863;52.832;4.758;2022-07-09T07:12:50;4.45;;;1.58;;
11614;SDS011;5863;52.832;4.758;2022-07-09T07:15:17;6.82;;;1.60;;
11614;SDS011;5863;52.832;4.758;2022-07-09T07:17:43;3.10;;;1.38;;
11614;SDS011;5863;52.832;4.758;2022-07-09T07:20:10;3.58;;;1.30;;
11614;SDS011;5863;52.832;4.758;2022-07-09T07:22:38;3.55;;;1.23;;
11614;SDS011;5863;52.832;4.758;2022-07-09T07:25:05;3.45;;;1.48;;
11614;SDS011;5863;52.832;4.758;2022-07-09T07:27:33;5.53;;;1.58;;
11614;SDS011;5863;52.832;4.758;2022-07-09T07:29:59;5.85;;;1.58;;
11614;SDS011;5863;52.832;4.758;2022-07-09T07:32:26;4.63;;;1.50;;
11614;SDS011;5863;52.832;4.758;2022-07-09T07:34:53;3.15;;;1.17;;
11614;SDS011;5863;52.832;4.758;2022-07-09T07:37:20;3.75;;;1.42;;
11614;SDS011;5863;52.832;4.758;2022-07-09T07:39:48;3.78;;;1.17;;
11614;SDS011;5863;52.832;4.758;2022-07-09T07:42:15;4.30;;;1.55;;
11614;SDS011;5863;52.832;4.758;2022-07-09T07:44:42;7.18;;;1.75;;
11614;SDS011;5863;52.832;4.758;2022-07-09T07:47:08;3.42;;;1.45;;
11614;SDS011;5863;52.832;4.758;2022-07-09T07:49:35;7.38;;;1.67;;
11614;SDS011;5863;52.832;4.758;2022-07-09T07:52:02;5.35;;;1.75;;
11614;SDS011;5863;52.832;4.758;2022-07-09T07:54:29;9.73;;;1.88;;
11614;SDS011;5863;52.832;4.758;2022-07-09T07:56:57;5.10;;;1.73;;
11614;SDS011;5863;52.832;4.758;2022-07-09T07:59:24;5.40;;;1.35;;
11614;SDS011;5863;52.832;4.758;2022-07-09T08:01:50;3.95;;;1.40;;
11614;SDS011;5863;52.832;4.758;2022-07-09T08:04:17;5.65;;;1.70;;
11614;SDS011;5863;52.832;4.758;2022-07-09T08:06:44;4.95;;;1.67;;
11614;SDS011;5863;52.832;4.758;2022-07-09T08:09:11;6.55;;;1.60;;
11614;SDS011;5863;52.832;4.758;2022-07-09T08:11:38;6.78;;;1.90;;
11614;SDS011;5863;52.832;4.758;2022-07-09T08:14:06;7.07;;;1.73;;
11614;SDS011;5863;52.832;4.758;2022-07-09T08:16:34;7.43;;;2.17;;
11614;SDS011;5863;52.832;4.758;2022-07-09T08:19:01;2.60;;;1.42;;
11614;SDS011;5863;52.832;4.758;2022-07-09T08:21:27;6.72;;;1.60;;
11614;SDS011;5863;52.832;4.758;2022-07-09T08:23:54;8.45;;;2.15;;
11614;SDS011;5863;52.832;4.758;2022-07-09T08:26:22;6.07;;;1.83;;
11614;SDS011;5863;52.832;4.758;2022-07-09T08:28:50;4.15;;;1.80;;
11614;SDS011;5863;52.832;4.758;2022-07-09T08:31:19;6.82;;;1.92;;
11614;SDS011;5863;52.832;4.758;2022-07-09T08:33:46;5.38;;;1.80;;
11614;SDS011;5863;52.832;4.758;2022-07-09T08:36:14;8.20;;;1.90;;
11614;SDS011;5863;52.832;4.758;2022-07-09T08:38:41;5.13;;;2.22;;
11614;SDS011;5863;52.832;4.758;2022-07-09T08:41:08;6.28;;;1.77;;
11614;SDS011;5863;52.832;4.758;2022-07-09T08:43:35;9.55;;;1.98;;
11614;SDS011;5863;52.832;4.758;2022-07-09T08:46:03;7.35;;;2.10;;
11614;SDS011;5863;52.832;4.758;2022-07-09T08:48:33;4.32;;;1.75;;
11614;SDS011;5863;52.832;4.758;2022-07-09T08:51:01;5.95;;;1.50;;
11614;SDS011;5863;52.832;4.758;2022-07-09T08:53:29;4.43;;;1.67;;
11614;SDS011;5863;52.832;4.758;2022-07-09T08:55:56;5.32;;;1.80;;
11614;SDS011;5863;52.832;4.758;2022-07-09T08:58:24;4.85;;;1.70;;
11614;SDS011;5863;52.832;4.758;2022-07-09T09:00:50;5.15;;;1.60;;
11614;SDS011;5863;52.832;4.758;2022-07-09T09:03:17;4.93;;;1.80;;
11614;SDS011;5863;52.832;4.758;2022-07-09T09:05:59;8.02;;;1.92;;
11614;SDS011;5863;52.832;4.758;2022-07-09T09:08:26;6.00;;;1.75;;
11614;SDS011;5863;52.832;4.758;2022-07-09T09:10:53;7.70;;;1.80;;
11614;SDS011;5863;52.832;4.758;2022-07-09T09:13:20;5.22;;;1.42;;
11614;SDS011;5863;52.832;4.758;2022-07-09T09:15:48;6.70;;;1.85;;
11614;SDS011;5863;52.832;4.758;2022-07-09T09:18:14;4.50;;;1.50;;
11614;SDS011;5863;52.832;4.758;2022-07-09T09:20:45;4.63;;;1.67;;
11614;SDS011;5863;52.832;4.758;2022-07-09T09:23:15;5.80;;;1.55;;
11614;SDS011;5863;52.832;4.758;2022-07-09T09:25:42;3.45;;;1.60;;
11614;SDS011;5863;52.832;4.758;2022-07-09T09:28:09;14.07;;;1.77;;
11614;SDS011;5863;52.832;4.758;2022-07-09T09:30:40;3.88;;;1.25;;
11614;SDS011;5863;52.832;4.758;2022-07-09T09:33:09;6.20;;;1.80;;
11614;SDS011;5863;52.832;4.758;2022-07-09T09:35:35;8.02;;;1.92;;
11614;SDS011;5863;52.832;4.758;2022-07-09T09:38:10;5.45;;;1.88;;
11614;SDS011;5863;52.832;4.758;2022-07-09T09:40:37;5.75;;;2.13;;
11614;SDS011;5863;52.832;4.758;2022-07-09T09:43:10;3.35;;;1.60;;
11614;SDS011;5863;52.832;4.758;2022-07-09T09:45:37;4.22;;;1.67;;
11614;SDS011;5863;52.832;4.758;2022-07-09T09:48:04;4.35;;;1.90;;
11614;SDS011;5863;52.832;4.758;2022-07-09T09:50:32;7.50;;;1.98;;
11614;SDS011;5863;52.832;4.758;2022-07-09T09:52:59;6.75;;;1.80;;
11614;SDS011;5863;52.832;4.758;2022-07-09T09:55:29;4.78;;;1.38;;
11614;SDS011;5863;52.832;4.758;2022-07-09T09:57:56;5.18;;;1.52;;
11614;SDS011;5863;52.832;4.758;2022-07-09T10:00:24;5.80;;;1.80;;
11614;SDS011;5863;52.832;4.758;2022-07-09T10:02:51;6.13;;;1.80;;
11614;SDS011;5863;52.832;4.758;2022-07-09T10:05:18;5.30;;;1.67;;
11614;SDS011;5863;52.832;4.758;2022-07-09T10:07:44;6.13;;;1.83;;
11614;SDS011;5863;52.832;4.758;2022-07-09T10:10:16;7.88;;;2.08;;
11614;SDS011;5863;52.832;4.758;2022-07-09T10:12:45;5.78;;;1.77;;
11614;SDS011;5863;52.832;4.758;2022-07-09T10:15:21;6.78;;;1.88;;
11614;SDS011;5863;52.832;4.758;2022-07-09T10:17:50;2.28;;;1.50;;
11614;SDS011;5863;52.832;4.758;2022-07-09T10:20:17;5.47;;;1.63;;
11614;SDS011;5863;52.832;4.758;2022-07-09T10:22:44;2.53;;;1.30;;
11614;SDS011;5863;52.832;4.758;2022-07-09T10:25:12;3.47;;;1.60;;
11614;SDS011;5863;52.832;4.758;2022-07-09T10:27:50;8.20;;;1.80;;
11614;SDS011;5863;52.832;4.758;2022-07-09T10:30:23;5.38;;;1.92;;
11614;SDS011;5863;52.832;4.758;2022-07-09T10:33:00;5.90;;;1.65;;
11614;SDS011;5863;52.832;4.758;2022-07-09T10:35:28;9.57;;;2.20;;
11614;SDS011;5863;52.832;4.758;2022-07-09T10:37:56;6.22;;;1.92;;
11614;SDS011;5863;52.832;4.758;2022-07-09T10:40:22;5.45;;;1.90;;
11614;SDS011;5863;52.832;4.758;2022-07-09T10:42:58;4.03;;;1.70;;
11614;SDS011;5863;52.832;4.758;2022-07-09T10:45:27;5.63;;;2.13;;
11614;SDS011;5863;52.832;4.758;2022-07-09T10:47:56;8.10;;;2.05;;
11614;SDS011;5863;52.832;4.758;2022-07-09T10:50:25;5.07;;;1.92;;
11614;SDS011;5863;52.832;4.758;2022-07-09T10:52:53;5.88;;;2.03;;
11614;SDS011;5863;52.832;4.758;2022-07-09T10:55:20;5.22;;;2.00;;
11614;SDS011;5863;52.832;4.758;2022-07-09T10:57:48;8.38;;;2.22;;
11614;SDS011;5863;52.832;4.758;2022-07-09T11:00:16;11.05;;;2.33;;
11614;SDS011;5863;52.832;4.758;2022-07-09T11:02:50;5.93;;;2.00;;
11614;SDS011;5863;52.832;4.758;2022-07-09T11:05:18;6.95;;;2.10;;
11614;SDS011;5863;52.832;4.758;2022-07-09T11:07:53;6.70;;;2.28;;
11614;SDS011;5863;52.832;4.758;2022-07-09T11:10:21;6.38;;;1.80;;
11614;SDS011;5863;52.832;4.758;2022-07-09T11:12:48;5.22;;;1.92;;
11614;SDS011;5863;52.832;4.758;2022-07-09T11:15:19;8.88;;;1.90;;
11614;SDS011;5863;52.832;4.758;2022-07-09T11:17:57;7.63;;;1.80;;
11614;SDS011;5863;52.832;4.758;2022-07-09T11:20:24;4.50;;;1.67;;
11614;SDS011;5863;52.832;4.758;2022-07-09T11:22:52;4.45;;;1.52;;
11614;SDS011;5863;52.832;4.758;2022-07-09T11:25:21;7.63;;;1.63;;
11614;SDS011;5863;52.832;4.758;2022-07-09T11:27:49;5.85;;;1.75;;
11614;SDS011;5863;52.832;4.758;2022-07-09T11:30:16;5.45;;;1.85;;
11614;SDS011;5863;52.832;4.758;2022-07-09T11:32:44;6.00;;;1.75;;
11614;SDS011;5863;52.832;4.758;2022-07-09T11:35:12;8.55;;;2.08;;
11614;SDS011;5863;52.832;4.758;2022-07-09T11:37:49;6.10;;;1.50;;
11614;SDS011;5863;52.832;4.758;2022-07-09T11:40:16;6.97;;;1.60;;
11614;SDS011;5863;52.832;4.758;2022-07-09T11:42:43;3.67;;;1.42;;
11614;SDS011;5863;52.832;4.758;2022-07-09T11:45:10;4.63;;;1.60;;
11614;SDS011;5863;52.832;4.758;2022-07-09T11:47:37;7.18;;;1.40;;
11614;SDS011;5863;52.832;4.758;2022-07-09T11:50:08;6.32;;;1.50;;
11614;SDS011;5863;52.832;4.758;2022-07-09T11:52:35;4.70;;;1.73;;
11614;SDS011;5863;52.832;4.758;2022-07-09T11:55:03;4.00;;;1.40;;
11614;SDS011;5863;52.832;4.758;2022-07-09T11:57:32;5.15;;;1.48;;
11614;SDS011;5863;52.832;4.758;2022-07-09T12:00:01;4.03;;;1.45;;
11614;SDS011;5863;52.832;4.758;2022-07-09T12:02:29;2.63;;;1.42;;
11614;SDS011;5863;52.832;4.758;2022-07-09T12:04:57;5.60;;;1.40;;
11614;SDS011;5863;52.832;4.758;2022-07-09T12:07:26;3.20;;;1.40;;
11614;SDS011;5863;52.832;4.758;2022-07-09T12:09:56;1.98;;;1.30;;
11614;SDS011;5863;52.832;4.758;2022-07-09T12:12:24;4.63;;;1.27;;
11614;SDS011;5863;52.832;4.758;2022-07-09T12:14:52;4.07;;;1.50;;
11614;SDS011;5863;52.832;4.758;2022-07-09T12:17:21;3.53;;;1.40;;
11614;SDS011;5863;52.832;4.758;2022-07-09T12:19:49;4.93;;;1.35;;
11614;SDS011;5863;52.832;4.758;2022-07-09T12:22:16;4.88;;;1.42;;
11614;SDS011;5863;52.832;4.758;2022-07-09T12:24:44;2.92;;;1.25;;
11614;SDS011;5863;52.832;4.758;2022-07-09T12:27:11;3.13;;;1.23;;
11614;SDS011;5863;52.832;4.758;2022-07-09T12:29:37;4.15;;;1.20;;
11614;SDS011;5863;52.832;4.758;2022-07-09T12:32:04;3.50;;;1.42;;
11614;SDS011;5863;52.832;4.758;2022-07-09T12:34:31;3.75;;;1.38;;
11614;SDS011;5863;52.832;4.758;2022-07-09T12:36:58;2.92;;;1.38;;
11614;SDS011;5863;52.832;4.758;2022-07-09T12:39:25;2.58;;;1.20;;
11614;SDS011;5863;52.832;4.758;2022-07-09T12:41:53;3.70;;;1.40;;
11614;SDS011;5863;52.832;4.758;2022-07-09T12:44:20;4.45;;;1.20;;
11614;SDS011;5863;52.832;4.758;2022-07-09T12:46:47;4.75;;;1.60;;
11614;SDS011;5863;52.832;4.758;2022-07-09T12:49:14;4.10;;;1.48;;
11614;SDS011;5863;52.832;4.758;2022-07-09T12:51:41;5.10;;;1.40;;
11614;SDS011;5863;52.832;4.758;2022-07-09T12:54:07;4.63;;;1.50;;
11614;SDS011;5863;52.832;4.758;2022-07-09T12:56:34;3.50;;;1.40;;
11614;SDS011;5863;52.832;4.758;2022-07-09T12:59:02;4.22;;;1.48;;
11614;SDS011;5863;52.832;4.758;2022-07-09T13:01:29;4.43;;;1.50;;
11614;SDS011;5863;52.832;4.758;2022-07-09T13:03:56;4.95;;;1.65;;
11614;SDS011;5863;52.832;4.758;2022-07-09T13:06:22;4.68;;;1.67;;
11614;SDS011;5863;52.832;4.758;2022-07-09T13:08:59;3.03;;;1.75;;
11614;SDS011;5863;52.832;4.758;2022-07-09T13:11:27;5.50;;;1.70;;
11614;SDS011;5863;52.832;4.758;2022-07-09T13:13:54;3.67;;;1.40;;
11614;SDS011;5863;52.832;4.758;2022-07-09T13:16:22;3.58;;;1.45;;
11614;SDS011;5863;52.832;4.758;2022-07-09T13:18:49;7.70;;;1.75;;
11614;SDS011;5863;52.832;4.758;2022-07-09T13:21:16;4.60;;;1.48;;
11614;SDS011;5863;52.832;4.758;2022-07-09T13:23:43;5.20;;;1.20;;
11614;SDS011;5863;52.832;4.758;2022-07-09T13:26:10;3.95;;;1.38;;
11614;SDS011;5863;52.832;4.758;2022-07-09T13:28:37;3.33;;;1.60;;
11614;SDS011;5863;52.832;4.758;2022-07-09T13:31:04;9.65;;;1.65;;
11614;SDS011;5863;52.832;4.758;2022-07-09T13:33:33;5.00;;;1.58;;
11614;SDS011;5863;52.832;4.758;2022-07-09T13:36:03;3.97;;;1.33;;
11614;SDS011;5863;52.832;4.758;2022-07-09T13:38:30;2.83;;;1.08;;
11614;SDS011;5863;52.832;4.758;2022-07-09T13:40:58;4.05;;;1.48;;
11614;SDS011;5863;52.832;4.758;2022-07-09T13:43:25;8.75;;;1.80;;
11614;SDS011;5863;52.832;4.758;2022-07-09T13:45:52;3.50;;;1.27;;
11614;SDS011;5863;52.832;4.758;2022-07-09T13:48:20;5.45;;;1.92;;
11614;SDS011;5863;52.832;4.758;2022-07-09T13:50:48;3.88;;;1.40;;
11614;SDS011;5863;52.832;4.758;2022-07-09T13:53:15;3.55;;;1.60;;
11614;SDS011;5863;52.832;4.758;2022-07-09T13:55:42;4.53;;;1.52;;
11614;SDS011;5863;52.832;4.758;2022-07-09T13:58:09;6.38;;;1.40;;
11614;SDS011;5863;52.832;4.758;2022-07-09T14:00:36;5.32;;;1.40;;
11614;SDS011;5863;52.832;4.758;2022-07-09T14:03:03;3.78;;;1.58;;
11614;SDS011;5863;52.832;4.758;2022-07-09T14:05:30;5.32;;;1.55;;
11614;SDS011;5863;52.832;4.758;2022-07-09T14:07:58;5.32;;;1.75;;
11614;SDS011;5863;52.832;4.758;2022-07-09T14:10:25;3.60;;;1.52;;
11614;SDS011;5863;52.832;4.758;2022-07-09T14:12:52;6.47;;;1.73;;
11614;SDS011;5863;52.832;4.758;2022-07-09T14:15:19;4.75;;;1.77;;
11614;SDS011;5863;52.832;4.758;2022-07-09T14:17:45;5.43;;;1.88;;
11614;SDS011;5863;52.832;4.758;2022-07-09T14:20:12;4.13;;;1.67;;
11614;SDS011;5863;52.832;4.758;2022-07-09T14:22:39;5.50;;;1.50;;
11614;SDS011;5863;52.832;4.758;2022-07-09T14:25:08;5.30;;;1.70;;
11614;SDS011;5863;52.832;4.758;2022-07-09T14:27:35;8.15;;;2.00;;
11614;SDS011;5863;52.832;4.758;2022-07-09T14:30:01;12.68;;;2.03;;
11614;SDS011;5863;52.832;4.758;2022-07-09T14:32:28;4.43;;;1.63;;
11614;SDS011;5863;52.832;4.758;2022-07-09T14:34:55;5.78;;;1.40;;
11614;SDS011;5863;52.832;4.758;2022-07-09T14:37:22;7.63;;;1.60;;
11614;SDS011;5863;52.832;4.758;2022-07-09T14:39:49;3.63;;;1.20;;
11614;SDS011;5863;52.832;4.758;2022-07-09T14:42:17;5.28;;;1.50;;
11614;SDS011;5863;52.832;4.758;2022-07-09T14:44:44;6.03;;;1.50;;
11614;SDS011;5863;52.832;4.758;2022-07-09T14:47:11;10.85;;;1.55;;
11614;SDS011;5863;52.832;4.758;2022-07-09T14:49:37;6.78;;;1.40;;
11614;SDS011;5863;52.832;4.758;2022-07-09T14:52:04;6.82;;;1.90;;
11614;SDS011;5863;52.832;4.758;2022-07-09T14:54:39;6.15;;;2.22;;
11614;SDS011;5863;52.832;4.758;2022-07-09T14:57:06;5.60;;;1.30;;
11614;SDS011;5863;52.832;4.758;2022-07-09T14:59:34;4.75;;;1.20;;
11614;SDS011;5863;52.832;4.758;2022-07-09T15:02:01;3.22;;;1.23;;